createdAt,value
2023-05-04T00:03:08.605Z,6.56
2023-05-04T00:06:16.469Z,6.58
2023-05-04T00:09:27.067Z,6.59
2023-05-04T00:12:35.792Z,6.61
2023-05-04T00:15:44.160Z,6.54
2023-05-04T00:18:53.954Z,6.44
2023-05-04T00:22:02.236Z,6.38
2023-05-04T00:25:10.393Z,6.30
2023-05-04T00:28:19.941Z,6.28
2023-05-04T00:31:28.031Z,6.29
2023-05-04T00:34:36.518Z,6.36
2023-05-04T00:37:44.412Z,6.43
2023-05-04T00:40:53.778Z,6.44
2023-05-04T00:44:01.782Z,6.48
2023-05-04T00:47:09.865Z,6.54
2023-05-04T00:50:19.214Z,6.58
2023-05-04T00:53:27.124Z,6.59
2023-05-04T00:56:35.347Z,6.56
2023-05-04T00:59:44.759Z,6.38
2023-05-04T01:02:52.809Z,6.22
2023-05-04T01:06:00.793Z,6.22
2023-05-04T01:09:10.262Z,6.22
2023-05-04T01:12:18.587Z,6.21
2023-05-04T01:15:26.697Z,6.18
2023-05-04T01:18:36.258Z,6.16
2023-05-04T01:21:44.309Z,6.06
2023-05-04T01:24:52.405Z,5.93
2023-05-04T01:28:00.786Z,5.88
2023-05-04T01:31:10.277Z,5.77
2023-05-04T01:34:18.274Z,5.56
2023-05-04T01:37:26.354Z,5.34
2023-05-04T01:40:35.777Z,5.22
2023-05-04T01:43:43.954Z,5.10
2023-05-04T01:46:51.906Z,5.01
2023-05-04T01:50:01.538Z,4.88
2023-05-04T01:53:09.834Z,4.73
2023-05-04T01:56:18.159Z,4.59
2023-05-04T01:59:27.774Z,4.52
2023-05-04T02:02:35.851Z,4.46
2023-05-04T02:05:43.889Z,4.36
2023-05-04T02:08:52.032Z,4.33
2023-05-04T02:12:01.772Z,4.32
2023-05-04T02:15:10.287Z,4.33
2023-05-04T02:18:18.732Z,4.39
2023-05-04T02:21:28.244Z,4.44
2023-05-04T02:24:36.308Z,4.43
2023-05-04T02:27:44.507Z,4.51
2023-05-04T02:30:54.041Z,4.50
2023-05-04T02:34:02.137Z,4.51
2023-05-04T02:37:10.190Z,4.57
2023-05-04T02:40:19.599Z,4.58
2023-05-04T02:43:27.660Z,4.67
2023-05-04T02:46:36.128Z,4.69
2023-05-04T02:49:45.667Z,4.67
2023-05-04T02:52:53.787Z,4.65
2023-05-04T02:56:01.730Z,4.70
2023-05-04T02:59:09.811Z,4.72
2023-05-04T03:02:19.232Z,4.79
2023-05-04T03:05:27.383Z,4.72
2023-05-04T03:08:35.207Z,4.57
2023-05-04T03:11:44.644Z,4.44
2023-05-04T03:14:52.656Z,4.44
2023-05-04T03:18:00.804Z,4.43
2023-05-04T03:21:10.338Z,4.46
2023-05-04T03:24:18.534Z,4.47
2023-05-04T03:27:26.612Z,4.42
2023-05-04T03:30:36.299Z,4.39
2023-05-04T03:33:44.502Z,4.40
2023-05-04T03:36:52.805Z,4.42
2023-05-04T03:40:00.904Z,4.47
2023-05-04T03:43:10.403Z,4.44
2023-05-04T03:46:18.412Z,4.46
2023-05-04T03:49:26.434Z,4.47
2023-05-04T03:52:35.965Z,4.47
2023-05-04T03:55:44.382Z,4.54
2023-05-04T03:58:52.476Z,4.58
2023-05-04T04:02:01.923Z,4.58
2023-05-04T04:05:10.213Z,4.67
2023-05-04T04:08:18.279Z,4.84
2023-05-04T04:11:27.746Z,4.92
2023-05-04T04:14:35.976Z,4.99
2023-05-04T04:17:44.132Z,5.14
2023-05-04T04:20:53.542Z,5.35
2023-05-04T04:24:01.417Z,5.49
2023-05-04T04:27:09.536Z,5.71
2023-05-04T04:30:17.682Z,5.86
2023-05-04T04:33:26.989Z,6.04
2023-05-04T04:36:35.122Z,6.21
2023-05-04T04:39:43.517Z,6.32
2023-05-04T04:42:52.893Z,6.41
2023-05-04T04:46:00.791Z,6.47
2023-05-04T04:49:08.771Z,6.54
2023-05-04T04:52:18.073Z,6.56
2023-05-04T04:55:26.217Z,6.63
2023-05-04T04:58:34.111Z,6.71
2023-05-04T05:01:43.811Z,6.81
2023-05-04T05:04:52.145Z,6.83
2023-05-04T05:08:00.171Z,6.63
2023-05-04T05:11:08.192Z,6.46
2023-05-04T05:14:18.604Z,6.43
2023-05-04T05:17:27.057Z,6.48
2023-05-04T05:20:34.916Z,6.66
2023-05-04T05:23:44.404Z,6.89
2023-05-04T05:26:52.518Z,7.20
2023-05-04T05:30:01.534Z,7.55
2023-05-04T05:33:00.974Z,7.82
2023-05-04T05:36:09.728Z,8.03
2023-05-04T05:39:17.853Z,8.18
2023-05-04T05:42:27.993Z,8.33
2023-05-04T05:45:36.031Z,8.48
2023-05-04T05:48:44.106Z,8.55
2023-05-04T05:51:52.227Z,8.66
2023-05-04T05:55:02.787Z,8.81
2023-05-04T05:58:10.936Z,8.91
2023-05-04T06:01:19.859Z,9.04
2023-05-04T06:04:29.528Z,9.13
2023-05-04T06:07:37.486Z,9.28
2023-05-04T06:10:45.377Z,9.39
2023-05-04T06:13:54.809Z,9.49
2023-05-04T06:17:02.726Z,9.60
2023-05-04T06:20:10.602Z,9.73
2023-05-04T06:23:19.980Z,9.81
2023-05-04T06:26:28.105Z,9.86
2023-05-04T06:29:35.971Z,9.96
2023-05-04T06:32:45.528Z,10.10
2023-05-04T06:35:53.415Z,10.25
2023-05-04T06:39:01.325Z,10.36
2023-05-04T06:42:09.311Z,10.55
2023-05-04T06:45:18.664Z,10.80
2023-05-04T06:48:26.573Z,10.99
2023-05-04T06:51:34.594Z,11.09
2023-05-04T06:54:43.918Z,11.21
2023-05-04T06:57:51.886Z,11.34
2023-05-04T07:00:59.771Z,11.52
2023-05-04T07:04:09.488Z,11.75
2023-05-04T07:07:17.709Z,11.94
2023-05-04T07:10:25.607Z,12.16
2023-05-04T07:13:34.950Z,12.31
2023-05-04T07:16:43.258Z,12.57
2023-05-04T07:19:51.291Z,12.75
2023-05-04T07:22:59.323Z,12.93
2023-05-04T07:26:08.587Z,13.15
2023-05-04T07:29:16.623Z,13.37
2023-05-04T07:32:24.805Z,13.54
2023-05-04T07:35:34.034Z,13.70
2023-05-04T07:38:42.200Z,13.79
2023-05-04T07:41:50.155Z,13.96
2023-05-04T07:44:59.577Z,14.02
2023-05-04T07:48:07.701Z,14.13
2023-05-04T07:51:15.672Z,14.27
2023-05-04T07:54:25.048Z,14.52
2023-05-04T07:57:33.108Z,14.69
2023-05-04T08:00:41.133Z,14.83
2023-05-04T08:03:49.079Z,14.91
2023-05-04T08:06:58.549Z,15.01
2023-05-04T08:10:06.570Z,15.21
2023-05-04T08:13:14.582Z,15.33
2023-05-04T08:16:23.987Z,15.49
2023-05-04T08:19:32.083Z,15.61
2023-05-04T08:22:39.984Z,15.66
2023-05-04T08:25:49.434Z,15.60
2023-05-04T08:28:57.560Z,15.70
2023-05-04T08:32:05.658Z,15.82
2023-05-04T08:35:15.083Z,15.97
2023-05-04T08:38:22.996Z,16.26
2023-05-04T08:41:31.090Z,16.42
2023-05-04T08:44:43.304Z,16.52
2023-05-04T08:47:41.054Z,16.62
2023-05-04T08:50:49.042Z,16.71
2023-05-04T08:53:57.030Z,16.89
2023-05-04T08:57:06.352Z,17.10
2023-05-04T09:00:14.166Z,17.13
2023-05-04T09:03:23.664Z,17.08
2023-05-04T09:06:33.002Z,17.11
2023-05-04T09:09:41.811Z,17.11
2023-05-04T09:12:50.127Z,16.98
2023-05-04T09:15:59.947Z,17.11
2023-05-04T09:19:07.946Z,17.26
2023-05-04T09:22:16.271Z,17.53
2023-05-04T09:25:26.005Z,17.73
2023-05-04T09:28:34.695Z,17.62
2023-05-04T09:31:43.310Z,17.84
2023-05-04T09:34:51.519Z,17.79
2023-05-04T09:38:01.160Z,17.71
2023-05-04T09:41:10.074Z,17.82
2023-05-04T09:44:18.510Z,17.87
2023-05-04T09:47:28.555Z,18.02
2023-05-04T09:50:37.357Z,18.06
2023-05-04T09:53:45.602Z,18.07
2023-05-04T09:56:55.541Z,18.10
2023-05-04T10:00:04.216Z,18.27
2023-05-04T10:03:12.637Z,18.43
2023-05-04T10:06:21.974Z,18.49
2023-05-04T10:09:30.868Z,18.67
2023-05-04T10:12:39.285Z,18.73
2023-05-04T10:15:47.644Z,18.86
2023-05-04T10:18:57.686Z,18.82
2023-05-04T10:22:05.586Z,18.91
2023-05-04T10:25:14.458Z,18.97
2023-05-04T10:28:24.455Z,18.82
2023-05-04T10:31:32.432Z,19.13
2023-05-04T10:34:41.131Z,19.40
2023-05-04T10:37:51.214Z,19.58
2023-05-04T10:40:59.199Z,19.78
2023-05-04T10:44:08.053Z,19.72
2023-05-04T10:47:18.225Z,19.63
2023-05-04T10:50:25.948Z,19.66
2023-05-04T10:53:34.609Z,19.65
2023-05-04T10:56:44.335Z,19.80
2023-05-04T10:59:52.908Z,19.95
2023-05-04T11:03:01.796Z,19.94
2023-05-04T11:06:10.354Z,19.87
2023-05-04T11:09:20.385Z,19.60
2023-05-04T11:12:28.896Z,19.58
2023-05-04T11:15:37.529Z,19.53
2023-05-04T11:18:47.443Z,19.72
2023-05-04T11:21:55.524Z,19.46
2023-05-04T11:25:04.704Z,19.54
2023-05-04T11:28:04.434Z,19.83
2023-05-04T11:31:12.391Z,20.06
2023-05-04T11:34:21.174Z,20.42
2023-05-04T11:37:31.146Z,20.59
2023-05-04T11:40:39.217Z,20.42
2023-05-04T11:43:48.108Z,20.34
2023-05-04T11:46:56.407Z,20.33
2023-05-04T11:50:06.175Z,20.16
2023-05-04T11:53:14.913Z,20.51
2023-05-04T11:56:23.301Z,20.83
2023-05-04T11:59:33.100Z,20.09
2023-05-04T12:02:41.634Z,19.87
2023-05-04T12:05:50.551Z,20.05
2023-05-04T12:09:00.214Z,20.31
2023-05-04T12:12:08.220Z,19.87
2023-05-04T12:15:16.892Z,19.88
2023-05-04T12:18:27.055Z,19.73
2023-05-04T12:21:35.152Z,19.98
2023-05-04T12:24:44.038Z,20.08
2023-05-04T12:27:52.436Z,20.27
2023-05-04T12:31:02.106Z,20.41
2023-05-04T12:34:10.966Z,20.76
2023-05-04T12:37:19.520Z,21.36
2023-05-04T12:40:29.331Z,21.21
2023-05-04T12:43:38.069Z,21.57
2023-05-04T12:46:46.390Z,21.90
2023-05-04T12:49:56.291Z,22.22
2023-05-04T12:53:04.702Z,22.22
2023-05-04T12:56:13.578Z,22.12
2023-05-04T12:59:23.041Z,21.95
2023-05-04T13:02:31.602Z,22.06
2023-05-04T13:05:40.445Z,22.04
2023-05-04T13:08:50.218Z,21.98
2023-05-04T13:11:58.561Z,21.97
2023-05-04T13:15:07.414Z,22.01
2023-05-04T13:18:15.918Z,22.04
2023-05-04T13:21:25.646Z,22.23
2023-05-04T13:24:34.575Z,22.27
2023-05-04T13:27:43.102Z,22.14
2023-05-04T13:30:53.230Z,22.07
2023-05-04T13:34:02.168Z,21.97
2023-05-04T13:37:10.153Z,21.97
2023-05-04T13:40:20.404Z,21.99
2023-05-04T13:43:29.299Z,21.97
2023-05-04T13:46:37.307Z,21.97
2023-05-04T13:49:47.404Z,22.04
2023-05-04T13:52:56.196Z,22.01
2023-05-04T13:56:04.137Z,22.01
2023-05-04T13:59:13.533Z,21.95
2023-05-04T14:02:23.359Z,22.07
2023-05-04T14:05:32.141Z,22.16
2023-05-04T14:08:41.183Z,22.19
2023-05-04T14:11:51.364Z,22.16
2023-05-04T14:15:00.451Z,22.01
2023-05-04T14:18:09.053Z,22.10
2023-05-04T14:21:18.899Z,22.23
2023-05-04T14:24:28.061Z,22.19
2023-05-04T14:27:36.487Z,22.12
2023-05-04T14:30:46.300Z,22.27
2023-05-04T14:33:56.967Z,22.39
2023-05-04T14:37:05.045Z,22.49
2023-05-04T14:40:16.137Z,22.27
2023-05-04T14:43:24.648Z,22.06
2023-05-04T14:44:09.409Z,22.01
2023-05-04T14:47:09.278Z,21.88
2023-05-04T14:50:19.545Z,21.75
2023-05-04T14:53:28.633Z,21.56
2023-05-04T14:56:37.398Z,21.51
2023-05-04T14:59:46.643Z,21.48
2023-05-04T15:02:56.946Z,21.42
2023-05-04T15:06:06.163Z,21.38
2023-05-04T15:09:14.080Z,21.39
2023-05-04T15:12:25.061Z,21.26
2023-05-04T15:15:33.262Z,21.20
2023-05-04T15:18:42.471Z,21.34
2023-05-04T15:21:52.733Z,21.38
2023-05-04T15:25:01.071Z,21.36
2023-05-04T15:28:09.688Z,21.19
2023-05-04T15:31:19.888Z,21.05
2023-05-04T15:34:27.718Z,20.90
2023-05-04T15:37:37.668Z,20.87
2023-05-04T15:40:45.590Z,20.72
2023-05-04T15:43:55.789Z,20.79
2023-05-04T15:47:05.353Z,20.74
2023-05-04T15:50:13.714Z,20.69
2023-05-04T15:53:23.796Z,20.69
2023-05-04T15:56:32.853Z,20.72
2023-05-04T15:59:42.720Z,20.72
2023-05-04T16:02:53.076Z,20.65
2023-05-04T16:06:01.684Z,20.66
2023-05-04T16:09:10.051Z,20.61
2023-05-04T16:12:20.078Z,20.51
2023-05-04T16:15:28.436Z,20.38
2023-05-04T16:18:37.519Z,20.15
2023-05-04T16:21:47.979Z,20.00
2023-05-04T16:24:56.813Z,19.87
2023-05-04T16:28:06.499Z,19.84
2023-05-04T16:31:15.557Z,19.73
2023-05-04T16:34:25.603Z,19.60
2023-05-04T16:37:34.625Z,19.50
2023-05-04T16:40:43.987Z,19.46
2023-05-04T16:43:54.968Z,19.40
2023-05-04T16:47:04.211Z,19.32
2023-05-04T16:50:12.892Z,19.25
2023-05-04T16:53:12.655Z,19.11
2023-05-04T16:56:23.851Z,18.86
2023-05-04T16:59:21.503Z,18.72
2023-05-04T17:02:32.721Z,18.70
2023-05-04T17:05:41.999Z,18.73
2023-05-04T17:08:50.450Z,18.68
2023-05-04T17:12:00.083Z,18.54
2023-05-04T17:14:59.655Z,18.44
2023-05-04T17:18:08.280Z,18.36
2023-05-04T17:21:17.480Z,18.28
2023-05-04T17:24:27.558Z,18.18
2023-05-04T17:27:36.244Z,18.17
2023-05-04T17:30:45.705Z,18.12
2023-05-04T17:33:55.032Z,18.04
2023-05-04T17:37:03.676Z,17.91
2023-05-04T17:40:12.814Z,17.81
2023-05-04T17:43:22.559Z,17.64
2023-05-04T17:46:31.023Z,17.47
2023-05-04T17:49:39.877Z,17.35
2023-05-04T17:52:48.452Z,17.26
2023-05-04T17:55:58.563Z,17.11
2023-05-04T17:59:07.031Z,17.03
2023-05-04T18:02:16.363Z,16.93
2023-05-04T18:05:16.597Z,16.83
2023-05-04T18:08:25.647Z,16.71
2023-05-04T18:11:33.729Z,16.53
2023-05-04T18:14:43.993Z,16.42
2023-05-04T18:17:52.553Z,16.27
2023-05-04T18:21:00.856Z,16.16
2023-05-04T18:24:11.147Z,15.97
2023-05-04T18:27:19.583Z,15.60
2023-05-04T18:30:28.055Z,15.39
2023-05-04T18:33:37.341Z,15.27
2023-05-04T18:36:49.234Z,15.21
2023-05-04T18:39:57.979Z,15.05
2023-05-04T18:43:06.899Z,14.95
2023-05-04T18:46:17.198Z,14.91
2023-05-04T18:49:25.924Z,14.95
2023-05-04T18:52:34.313Z,14.90
2023-05-04T18:55:44.635Z,14.94
2023-05-04T18:58:53.781Z,14.93
2023-05-04T19:02:02.092Z,14.93
2023-05-04T19:05:14.340Z,15.02
2023-05-04T19:08:12.465Z,15.08
2023-05-04T19:11:20.700Z,15.05
2023-05-04T19:14:21.546Z,15.02
2023-05-04T19:17:29.858Z,14.87
2023-05-04T19:20:39.002Z,14.78
2023-05-04T19:23:48.104Z,14.69
2023-05-04T19:26:58.295Z,14.60
2023-05-04T19:30:07.241Z,14.52
2023-05-04T19:33:16.432Z,14.39
2023-05-04T19:36:26.785Z,14.21
2023-05-04T19:39:34.998Z,14.09
2023-05-04T19:42:43.997Z,14.02
2023-05-04T19:45:55.820Z,13.95
2023-05-04T19:48:54.605Z,13.79
2023-05-04T19:52:03.598Z,13.67
2023-05-04T19:55:13.817Z,13.58
2023-05-04T19:58:21.928Z,13.43
2023-05-04T20:01:30.604Z,13.38
2023-05-04T20:04:39.950Z,13.38
2023-05-04T20:07:39.434Z,13.30
2023-05-04T20:10:48.821Z,13.22
2023-05-04T20:13:57.857Z,13.15
2023-05-04T20:17:07.646Z,13.09
2023-05-04T20:20:16.333Z,13.02
2023-05-04T20:23:24.643Z,12.88
2023-05-04T20:26:34.950Z,12.79
2023-05-04T20:29:44.302Z,12.75
2023-05-04T20:32:52.969Z,12.67
2023-05-04T20:36:03.279Z,12.54
2023-05-04T20:39:11.123Z,12.38
2023-05-04T20:42:20.346Z,12.27
2023-05-04T20:45:28.781Z,12.19
2023-05-04T20:48:38.508Z,12.09
2023-05-04T20:51:48.114Z,12.02
2023-05-04T20:54:56.367Z,11.96
2023-05-04T20:58:06.315Z,11.87
2023-05-04T21:01:15.496Z,11.87
2023-05-04T21:04:23.400Z,11.85
2023-05-04T21:07:33.308Z,11.78
2023-05-04T21:10:42.107Z,11.71
2023-05-04T21:13:50.583Z,11.64
2023-05-04T21:17:01.188Z,11.62
2023-05-04T21:20:10.225Z,11.57
2023-05-04T21:23:18.315Z,11.52
2023-05-04T21:26:28.799Z,11.47
2023-05-04T21:29:37.965Z,11.38
2023-05-04T21:32:46.393Z,11.31
2023-05-04T21:35:54.389Z,11.21
2023-05-04T21:39:04.559Z,11.19
2023-05-04T21:42:12.920Z,11.19
2023-05-04T21:45:21.833Z,11.25
2023-05-04T21:48:21.744Z,11.25
2023-05-04T21:51:30.198Z,11.32
2023-05-04T21:54:38.617Z,11.50
2023-05-04T21:57:49.176Z,11.64
2023-05-04T22:00:57.570Z,11.71
2023-05-04T22:04:06.340Z,11.74
2023-05-04T22:07:16.985Z,11.75
2023-05-04T22:10:24.839Z,11.77
2023-05-04T22:13:33.632Z,11.75
2023-05-04T22:16:41.597Z,11.70
2023-05-04T22:19:51.787Z,11.70
2023-05-04T22:23:01.186Z,11.67
2023-05-04T22:26:09.426Z,11.65
2023-05-04T22:29:18.947Z,11.68
2023-05-04T22:32:27.299Z,11.68
2023-05-04T22:35:35.740Z,11.68
2023-05-04T22:38:45.993Z,11.67
2023-05-04T22:41:54.752Z,11.64
2023-05-04T22:45:03.276Z,11.61
2023-05-04T22:48:13.419Z,11.53
2023-05-04T22:51:21.586Z,11.39
2023-05-04T22:54:30.285Z,11.20
2023-05-04T22:57:38.823Z,10.98
2023-05-04T23:00:48.903Z,10.81
2023-05-04T23:03:57.357Z,10.65
2023-05-04T23:07:05.412Z,10.56
2023-05-04T23:10:16.658Z,10.53
2023-05-04T23:13:25.062Z,10.43
2023-05-04T23:14:19.267Z,10.42
2023-05-04T23:17:29.784Z,10.22
2023-05-04T23:20:39.584Z,10.04
2023-05-04T23:23:47.721Z,9.85
2023-05-04T23:26:57.273Z,9.70
2023-05-04T23:30:06.764Z,9.57
2023-05-04T23:33:15.617Z,9.49
2023-05-04T23:36:24.945Z,9.48
2023-05-04T23:39:35.347Z,9.42
2023-05-04T23:42:43.139Z,9.38
2023-05-04T23:45:52.063Z,9.39
2023-05-04T23:49:02.510Z,9.31
2023-05-04T23:52:11.183Z,9.30
2023-05-04T23:55:19.859Z,9.25
2023-05-04T23:58:28.654Z,9.24
